Time;durP1;ratioP1;P1;durP2;ratioP2;P2;SDS_P1;SDS_P2;PMS_P1;PMS_P2;Temp;Humidity;BMP_temperature;BMP_pressure;BME280_temperature;BME280_humidity;BME280_pressure;Samples;Min_cycle;Max_cycle;Signal;HPM_P1;HPM_P2
2020/12/07 00:00:30;;;;;;;17.17;7.57;;;;;;;-2.75;88.41;97708.50;1775973;80;20946;-77
2020/12/07 00:02:59;;;;;;;15.57;6.83;;;;;;;-2.76;88.64;97723.38;1775916;80;21132;-77
2020/12/07 00:05:26;;;;;;;20.93;9.33;;;;;;;-2.75;88.36;97721.22;1775941;80;20930;-77
2020/12/07 00:07:53;;;;;;;15.83;7.43;;;;;;;-2.75;88.50;97713.15;1775907;80;21349;-77
2020/12/07 00:10:21;;;;;;;17.10;8.53;;;;;;;-2.73;88.27;97728.38;1783513;78;21363;-77
2020/12/07 00:12:49;;;;;;;16.13;6.93;;;;;;;-2.75;88.33;97734.78;1788306;80;21103;-77
2020/12/07 00:15:16;;;;;;;14.50;6.90;;;;;;;-2.74;88.11;97740.27;1788366;80;20945;-77
2020/12/07 00:17:43;;;;;;;15.77;7.17;;;;;;;-2.74;88.19;97719.91;1788412;79;20894;-77
2020/12/07 00:20:13;;;;;;;14.03;7.03;;;;;;;-2.71;87.80;97710.11;1788306;80;21316;-77
2020/12/07 00:22:40;;;;;;;14.13;7.17;;;;;;;-2.75;87.56;97727.59;1788295;80;21373;-78
2020/12/07 00:25:07;;;;;;;14.50;7.20;;;;;;;-2.78;87.43;97743.78;1788369;80;21008;-78
2020/12/07 00:27:35;;;;;;;17.33;8.03;;;;;;;-2.78;87.54;97729.78;1788336;80;20871;-77
2020/12/07 00:30:05;;;;;;;19.33;8.80;;;;;;;-2.78;87.03;97731.05;1788474;80;21048;-76
2020/12/07 00:32:33;;;;;;;13.63;6.67;;;;;;;-2.80;87.12;97727.72;1788430;80;21304;-78
2020/12/07 00:35:00;;;;;;;18.43;8.30;;;;;;;-2.79;87.31;97725.56;1788473;80;20957;-79
2020/12/07 00:37:28;;;;;;;17.23;7.10;;;;;;;-2.79;87.09;97725.56;1788539;80;20969;-77
2020/12/07 00:39:55;;;;;;;13.93;7.00;;;;;;;-2.79;86.76;97737.46;1788459;79;21430;-76
2020/12/07 00:42:22;;;;;;;14.57;7.77;;;;;;;-2.81;86.80;97715.86;1788560;80;21024;-76
2020/12/07 00:44:50;;;;;;;13.57;6.17;;;;;;;-2.82;86.98;97717.55;1759906;80;21366;-77
2020/12/07 00:47:17;;;;;;;12.83;6.23;;;;;;;-2.80;86.70;97724.34;1788469;79;21422;-77
2020/12/07 00:49:45;;;;;;;15.23;7.07;;;;;;;-2.82;86.28;97742.16;1788550;80;21323;-76
2020/12/07 00:52:12;;;;;;;16.27;7.07;;;;;;;-2.83;86.63;97715.04;1788557;80;20918;-77
2020/12/07 00:54:40;;;;;;;18.07;9.27;;;;;;;-2.85;87.02;97702.80;1788537;80;20961;-76
2020/12/07 00:57:08;;;;;;;14.93;7.20;;;;;;;-2.84;87.00;97709.55;1788614;80;21734;-77
2020/12/07 00:59:37;;;;;;;16.33;6.77;;;;;;;-2.83;86.92;97709.95;1788367;80;21344;-77
2020/12/07 01:02:05;;;;;;;16.10;7.80;;;;;;;-2.85;86.34;97704.90;1788499;80;20934;-77
2020/12/07 01:04:32;;;;;;;17.83;7.67;;;;;;;-2.88;86.43;97700.33;1788515;80;20910;-77
2020/12/07 01:07:02;;;;;;;14.23;6.60;;;;;;;-2.91;86.46;97705.48;1788557;80;20993;-77
2020/12/07 01:09:30;;;;;;;12.57;6.40;;;;;;;-2.95;86.56;97697.53;1788390;79;21635;-77
2020/12/07 01:12:00;;;;;;;14.47;6.60;;;;;;;-3.00;86.24;97674.72;1788462;80;21091;-77
2020/12/07 01:14:29;;;;;;;13.60;7.30;;;;;;;-3.04;85.92;97687.57;1787505;80;20961;-77
2020/12/07 01:16:58;;;;;;;13.40;6.30;;;;;;;-3.08;85.62;97700.78;1788423;80;20989;-77
2020/12/07 01:19:26;;;;;;;18.97;9.47;;;;;;;-3.13;85.54;97702.18;1788558;80;21066;-77
2020/12/07 01:21:54;;;;;;;17.83;8.07;;;;;;;-3.14;85.43;97704.33;1788483;80;21411;-77
2020/12/07 01:24:21;;;;;;;14.50;7.57;;;;;;;-3.18;84.74;97709.06;1788422;80;21122;-77
2020/12/07 01:26:49;;;;;;;14.60;6.97;;;;;;;-3.21;84.86;97719.32;1788424;80;20993;-77
2020/12/07 01:29:17;;;;;;;15.40;7.23;;;;;;;-3.25;84.15;97701.17;1788509;80;21413;-77
2020/12/07 01:31:45;;;;;;;14.53;6.93;;;;;;;-3.30;84.55;97692.82;1788548;80;20878;-77
2020/12/07 01:34:13;;;;;;;19.67;8.97;;;;;;;-3.30;84.56;97704.27;1788473;80;21238;-78
2020/12/07 01:36:41;;;;;;;16.93;6.87;;;;;;;-3.33;84.52;97685.67;1759784;80;21127;-77
2020/12/07 01:39:08;;;;;;;15.53;7.33;;;;;;;-3.40;84.16;97691.33;1788549;80;21139;-77
2020/12/07 01:41:35;;;;;;;17.00;8.17;;;;;;;-3.42;84.33;97686.28;1788445;80;20910;-77
2020/12/07 01:44:03;;;;;;;13.17;6.20;;;;;;;-3.43;84.39;97688.86;1788419;80;21268;-77
2020/12/07 01:46:30;;;;;;;18.23;6.67;;;;;;;-3.44;84.14;97698.64;1788375;80;21383;-76
2020/12/07 01:48:59;;;;;;;24.87;11.07;;;;;;;-3.43;83.96;97699.87;1788544;80;20997;-77
2020/12/07 01:51:27;;;;;;;15.30;8.13;;;;;;;-3.47;83.58;97698.28;1788517;80;21052;-77
2020/12/07 01:53:54;;;;;;;16.40;7.73;;;;;;;-3.46;83.59;97691.48;1788531;80;20922;-77
2020/12/07 01:56:29;;;;;;;17.77;8.77;;;;;;;-3.45;83.35;97719.85;1788565;80;21099;-77
2020/12/07 01:58:59;;;;;;;18.63;7.17;;;;;;;-3.47;83.01;97710.16;1787762;79;21423;-77
2020/12/07 02:01:29;;;;;;;15.37;8.00;;;;;;;-3.52;82.75;97700.51;1787704;80;20993;-77
2020/12/07 02:03:56;;;;;;;18.23;9.47;;;;;;;-3.53;83.07;97709.01;1788546;80;20926;-76
2020/12/07 02:06:25;;;;;;;17.97;8.30;;;;;;;-3.51;82.94;97703.02;1788380;80;21343;-77
2020/12/07 02:08:52;;;;;;;17.80;8.53;;;;;;;-3.50;83.06;97692.41;1759928;80;21411;-77
2020/12/07 02:11:21;;;;;;;15.23;7.80;;;;;;;-3.49;82.94;97700.43;1778819;80;21899;-76
2020/12/07 02:13:48;;;;;;;18.47;7.97;;;;;;;-3.47;82.87;97694.91;1776003;80;21073;-77
2020/12/07 02:16:16;;;;;;;18.07;6.80;;;;;;;-3.50;82.49;97703.84;1776007;80;20927;-76
2020/12/07 02:18:45;;;;;;;22.20;7.83;;;;;;;-3.52;82.42;97703.05;1774968;80;20910;-76
2020/12/07 02:21:13;;;;;;;15.63;6.87;;;;;;;-3.56;82.25;97700.16;1776001;80;20939;-76
2020/12/07 02:23:45;;;;;;;16.82;7.58;;;;;;;-3.57;82.26;97691.69;1775052;80;21471;-77
2020/12/07 02:26:14;;;;;;;15.93;6.83;;;;;;;-3.59;82.32;97683.70;1775591;80;21005;-77
2020/12/07 02:28:41;;;;;;;18.67;7.50;;;;;;;-3.61;82.49;97688.83;1775984;80;21325;-77
2020/12/07 02:31:10;;;;;;;18.47;8.13;;;;;;;-3.62;82.37;97667.27;1775946;80;21399;-77
2020/12/07 02:33:39;;;;;;;19.27;8.87;;;;;;;-3.64;82.67;97686.77;1776112;80;20997;-78
2020/12/07 02:36:10;;;;;;;16.97;7.83;;;;;;;-3.65;82.58;97670.69;1775972;80;21357;-78
2020/12/07 02:38:39;;;;;;;17.62;8.13;;;;;;;-3.64;82.65;97682.55;1775464;80;21017;-78
2020/12/07 02:41:07;;;;;;;14.97;7.53;;;;;;;-3.64;82.53;97697.80;1775993;80;20887;-78
2020/12/07 02:43:35;;;;;;;17.43;7.93;;;;;;;-3.63;82.79;97691.84;1775965;80;20930;-78
2020/12/07 02:46:02;;;;;;;14.33;6.77;;;;;;;-3.62;82.43;97703.69;1776058;80;20879;-78
2020/12/07 02:48:30;;;;;;;16.13;7.33;;;;;;;-3.62;82.58;97693.95;1775921;80;21154;-78
2020/12/07 02:51:00;;;;;;;16.60;8.33;;;;;;;-3.63;82.50;97693.12;1775583;80;21494;-76
2020/12/07 02:53:29;;;;;;;17.03;7.37;;;;;;;-3.64;82.45;97667.70;1775981;80;21010;-77
2020/12/07 02:55:58;;;;;;;13.30;6.53;;;;;;;-3.65;82.40;97691.45;1775831;80;21167;-77
2020/12/07 02:58:25;;;;;;;19.03;8.20;;;;;;;-3.69;82.31;97690.26;1776003;80;20930;-77
2020/12/07 03:00:54;;;;;;;16.33;7.03;;;;;;;-3.71;82.46;97693.27;1775975;80;21388;-77
2020/12/07 03:03:21;;;;;;;19.27;7.30;;;;;;;-3.74;82.49;97693.75;1751825;80;20994;-77
2020/12/07 03:05:49;;;;;;;14.67;7.33;;;;;;;-3.76;82.17;97696.77;1775941;80;21010;-77
2020/12/07 03:08:18;;;;;;;13.37;6.07;;;;;;;-3.82;82.30;97698.16;1775821;80;21190;-73
2020/12/07 03:10:46;;;;;;;14.30;7.23;;;;;;;-3.84;82.74;97698.63;1782073;80;21361;-73
2020/12/07 03:13:13;;;;;;;15.07;7.03;;;;;;;-3.87;82.50;97697.44;1791741;80;21650;-73
2020/12/07 03:15:42;;;;;;;17.83;8.77;;;;;;;-3.89;82.64;97702.95;1791052;80;21135;-73
2020/12/07 03:18:11;;;;;;;19.23;6.40;;;;;;;-3.90;82.82;97712.28;1791744;79;20985;-73
2020/12/07 03:20:40;;;;;;;16.80;7.20;;;;;;;-3.93;82.61;97707.27;1790560;80;21060;-73
2020/12/07 03:23:07;;;;;;;16.20;7.33;;;;;;;-3.96;82.72;97710.72;1791738;80;21257;-73
2020/12/07 03:25:36;;;;;;;17.37;8.00;;;;;;;-3.96;83.06;97697.19;1791723;80;20926;-73
2020/12/07 03:28:03;;;;;;;18.60;9.33;;;;;;;-3.96;83.00;97699.72;1791603;80;20938;-73
2020/12/07 03:30:31;;;;;;;15.07;7.03;;;;;;;-3.98;83.06;97704.81;1791670;80;20993;-73
2020/12/07 03:32:59;;;;;;;22.63;12.50;;;;;;;-4.00;83.15;97700.63;1791669;80;20972;-73
2020/12/07 03:35:28;;;;;;;16.13;7.43;;;;;;;-4.00;83.33;97710.80;1791706;80;21044;-73
2020/12/07 03:37:56;;;;;;;17.17;8.20;;;;;;;-3.98;83.40;97717.95;1791716;80;21742;-73
2020/12/07 03:40:24;;;;;;;28.60;15.67;;;;;;;-3.97;83.38;97679.00;1791687;80;21067;-73
2020/12/07 03:42:51;;;;;;;18.47;9.57;;;;;;;-3.98;83.58;97705.24;1791711;80;20977;-72
2020/12/07 03:45:19;;;;;;;16.67;8.90;;;;;;;-3.97;83.69;97700.59;1791623;80;21127;-73
2020/12/07 03:47:47;;;;;;;17.47;7.93;;;;;;;-3.97;83.78;97685.35;1791694;80;20902;-74
2020/12/07 03:50:16;;;;;;;16.77;8.47;;;;;;;-3.97;83.97;97690.00;1791535;80;21427;-73
2020/12/07 03:52:45;;;;;;;17.50;7.87;;;;;;;-3.96;84.14;97685.75;1791605;80;20917;-74
2020/12/07 03:55:14;;;;;;;21.07;7.70;;;;;;;-3.96;84.18;97690.39;1790995;80;21323;-72
2020/12/07 03:57:41;;;;;;;19.40;7.83;;;;;;;-3.94;84.33;97676.38;1791640;80;21388;-73
2020/12/07 04:00:09;;;;;;;14.43;6.37;;;;;;;-3.93;84.14;97680.59;1791720;79;20925;-73
2020/12/07 04:02:38;;;;;;;17.87;7.67;;;;;;;-3.91;84.10;97682.66;1791390;80;21106;-77
2020/12/07 04:05:14;;;;;;;17.93;7.73;;;;;;;-3.91;84.15;97686.48;1791637;80;21315;-76
2020/12/07 04:07:35;;;;;;;19.40;9.50;;;;;;;-3.91;84.13;97674.20;1790665;80;21059;-77
2020/12/07 04:10:02;;;;;;;17.47;7.97;;;;;;;-3.94;84.31;97680.20;1791718;80;20926;-76
2020/12/07 04:12:30;;;;;;;18.07;8.70;;;;;;;-3.95;84.37;97674.72;1791697;79;20973;-77
2020/12/07 04:14:58;;;;;;;16.43;7.53;;;;;;;-3.96;84.72;97673.88;1791689;80;21143;-77
2020/12/07 04:17:25;;;;;;;19.83;8.07;;;;;;;-3.92;84.88;97674.64;1791709;80;21315;-77
2020/12/07 04:19:52;;;;;;;18.40;9.40;;;;;;;-3.90;84.62;97663.17;1791680;80;20961;-76
2020/12/07 04:22:19;;;;;;;16.07;7.30;;;;;;;-3.91;84.63;97677.58;1791732;80;20961;-76
2020/12/07 04:24:46;;;;;;;23.47;10.17;;;;;;;-3.92;84.74;97679.72;1791654;80;21036;-77
2020/12/07 04:27:14;;;;;;;17.43;8.20;;;;;;;-3.93;84.50;97677.22;1791644;80;21447;-77
2020/12/07 04:29:41;;;;;;;16.43;7.20;;;;;;;-3.93;84.91;97674.24;1791650;80;21505;-77
2020/12/07 04:32:08;;;;;;;19.23;8.13;;;;;;;-3.91;84.90;97664.88;1791675;80;21407;-77
2020/12/07 04:34:35;;;;;;;17.47;7.43;;;;;;;-3.89;84.97;97666.94;1791684;80;20914;-77
2020/12/07 04:37:02;;;;;;;21.53;9.73;;;;;;;-3.87;84.93;97686.83;1791720;80;20965;-77
2020/12/07 04:39:29;;;;;;;20.03;8.10;;;;;;;-3.86;84.63;97666.91;1791637;80;21632;-77
2020/12/07 04:42:00;;;;;;;16.03;7.60;;;;;;;-3.86;84.44;97678.34;1791641;80;20946;-76
2020/12/07 04:44:27;;;;;;;19.40;8.47;;;;;;;-3.88;84.48;97683.05;1791709;80;20898;-77
2020/12/07 04:46:55;;;;;;;15.30;7.20;;;;;;;-3.86;84.66;97682.59;1793178;79;20921;-77
2020/12/07 04:49:22;;;;;;;19.47;8.30;;;;;;;-3.85;84.86;97671.55;1767415;80;20929;-77
2020/12/07 04:51:49;;;;;;;18.37;8.10;;;;;;;-3.84;84.71;97676.59;1791668;80;21191;-77
2020/12/07 04:54:16;;;;;;;16.37;6.97;;;;;;;-3.84;84.43;97691.84;1791603;80;20957;-76
2020/12/07 04:56:43;;;;;;;20.37;7.43;;;;;;;-3.81;84.56;97680.77;1793352;79;20933;-77
2020/12/07 04:59:10;;;;;;;16.57;8.40;;;;;;;-3.81;84.51;97677.79;1791724;80;20933;-77
2020/12/07 05:01:38;;;;;;;17.90;7.27;;;;;;;-3.79;84.39;97679.89;1791695;80;20930;-77
2020/12/07 05:04:06;;;;;;;25.83;8.83;;;;;;;-3.80;84.56;97676.95;1791743;79;22307;-80
2020/12/07 05:06:33;;;;;;;18.77;6.97;;;;;;;-3.78;84.37;97673.94;1791568;79;20918;-76
2020/12/07 05:09:00;;;;;;;18.73;9.37;;;;;;;-3.77;84.10;97659.08;1791644;80;20993;-76
2020/12/07 05:11:28;;;;;;;16.37;8.80;;;;;;;-3.78;84.00;97664.20;1789983;80;20917;-78
2020/12/07 05:14:05;;;;;;;17.93;8.80;;;;;;;-3.79;84.06;97653.64;1788368;80;20937;-78
2020/12/07 05:16:29;;;;;;;21.95;8.50;;;;;;;-3.80;84.05;97655.78;1787837;79;21402;-78
2020/12/07 05:18:56;;;;;;;24.80;8.27;;;;;;;-3.84;83.91;97650.34;1788251;79;20934;-77
2020/12/07 05:21:23;;;;;;;19.17;8.63;;;;;;;-3.87;84.22;97662.69;1788505;80;20969;-77
2020/12/07 05:23:53;;;;;;;18.47;7.97;;;;;;;-3.91;84.09;97658.52;1788426;79;20929;-78
2020/12/07 05:26:22;;;;;;;18.27;7.93;;;;;;;-3.94;84.06;97663.68;1788496;80;20981;-77
2020/12/07 05:28:52;;;;;;;20.03;8.53;;;;;;;-3.96;84.27;97670.06;1788457;80;21380;-78
2020/12/07 05:31:21;;;;;;;16.67;8.30;;;;;;;-3.93;84.33;97656.89;1788364;79;21143;-77
2020/12/07 05:33:49;;;;;;;20.73;8.43;;;;;;;-3.93;84.28;97672.14;1788466;80;20965;-78
2020/12/07 05:36:17;;;;;;;21.30;8.27;;;;;;;-3.97;84.27;97672.65;1788417;80;20918;-78
2020/12/07 05:38:45;;;;;;;25.67;7.97;;;;;;;-3.97;84.41;97661.22;1788529;80;20902;-78
2020/12/07 05:41:12;;;;;;;18.93;8.63;;;;;;;-3.97;84.45;97654.86;1788468;80;21863;-77
2020/12/07 05:43:39;;;;;;;19.30;8.33;;;;;;;-3.94;84.43;97680.62;1788413;80;21013;-78
2020/12/07 05:46:06;;;;;;;21.17;9.93;;;;;;;-3.97;83.97;97663.31;1788393;80;21316;-78
2020/12/07 05:48:35;;;;;;;19.07;9.03;;;;;;;-4.01;84.15;97648.16;1788432;80;21329;-78
2020/12/07 05:51:05;;;;;;;21.13;9.70;;;;;;;-4.05;84.35;97674.50;1788445;80;21502;-78
2020/12/07 05:53:37;;;;;;;19.03;8.50;;;;;;;-4.07;84.60;97640.21;1788435;79;21347;-78
2020/12/07 05:56:06;;;;;;;20.23;8.67;;;;;;;-4.06;84.40;97674.91;1785956;78;21287;-82
2020/12/07 05:58:56;;;;;;;19.37;9.07;;;;;;;-4.06;84.14;97649.94;1788437;79;20918;-78
2020/12/07 06:01:26;;;;;;;23.27;8.97;;;;;;;-4.11;84.23;97665.29;1795012;78;21179;-77
2020/12/07 06:03:54;;;;;;;22.47;10.03;;;;;;;-4.14;84.48;97666.59;1791808;78;21179;-80
2020/12/07 06:06:34;;;;;;;24.53;8.60;;;;;;;-4.18;84.71;97674.33;1795646;79;21799;-77
2020/12/07 06:09:14;;;;;;;18.97;8.50;;;;;;;-4.21;84.81;97687.92;1784458;78;21189;-76
2020/12/07 06:12:01;;;;;;;20.40;9.17;;;;;;;-4.22;84.86;97678.61;1785097;79;21171;-78
2020/12/07 06:14:28;;;;;;;20.13;8.67;;;;;;;-4.23;84.83;97673.12;1766287;80;21144;-76
2020/12/07 06:16:56;;;;;;;19.20;9.07;;;;;;;-4.26;85.00;97661.34;1791683;79;21116;-76
2020/12/07 06:19:23;;;;;;;19.97;9.50;;;;;;;-4.26;85.01;97666.41;1792432;78;21561;-77
2020/12/07 06:21:57;;;;;;;25.37;10.63;;;;;;;-4.28;84.80;97646.56;1778058;79;21596;-74
2020/12/07 06:24:40;;;;;;;21.20;8.77;;;;;;;-4.30;84.57;97654.66;1756791;78;21197;-74
2020/12/07 06:27:09;;;;;;;;;;;;;;;-4.31;84.65;97654.66;1774419;79;21163;-73
2020/12/07 06:29:36;;;;;;;20.17;8.10;;;;;;;-4.31;84.64;97675.81;1768589;78;20470;-79
2020/12/07 06:32:04;;;;;;;24.40;9.63;;;;;;;-4.28;84.64;97668.16;1743647;81;21209;-77
2020/12/07 06:34:40;;;;;;;19.00;8.50;;;;;;;-4.25;84.95;97663.00;1781999;79;21164;-80
2020/12/07 06:37:11;;;;;;;22.87;10.07;;;;;;;-4.24;85.21;97658.33;1781303;79;21139;-76
2020/12/07 06:39:45;;;;;;;23.10;10.73;;;;;;;-4.20;84.70;97686.22;1786613;79;21533;-76
2020/12/07 06:42:13;;;;;;;18.17;8.43;;;;;;;-4.21;84.37;97653.64;1775768;79;21143;-77
2020/12/07 06:44:44;;;;;;;22.57;9.37;;;;;;;-4.18;84.37;97650.20;1782730;79;21676;-76
2020/12/07 06:47:18;;;;;;;27.87;12.47;;;;;;;-4.17;84.56;97667.10;1781845;79;21089;-75
2020/12/07 06:52:17;;;;;;;21.97;9.60;;;;;;;-4.09;84.69;97649.58;1783110;78;21135;-75
2020/12/07 06:57:31;;;;;;;20.97;8.27;;;;;;;-4.01;83.74;97637.99;1775579;78;21367;-77
2020/12/07 07:00:16;;;;;;;19.17;8.47;;;;;;;-4.02;83.53;97647.75;1773494;78;21207;-79
2020/12/07 07:02:53;;;;;;;16.87;8.00;;;;;;;-4.05;83.59;97646.13;1763893;80;21117;-78
2020/12/07 07:05:27;;;;;;;22.97;8.80;;;;;;;-4.02;84.06;97651.56;1762935;80;21583;-80
2020/12/07 07:07:57;;;;;;;18.80;8.90;;;;;;;-4.03;83.90;97646.92;1757545;80;21169;-79
2020/12/07 07:10:24;;;;;;;16.83;7.77;;;;;;;-4.05;83.59;97663.91;1743299;81;21856;-77
2020/12/07 07:12:51;;;;;;;20.77;8.20;;;;;;;-4.07;83.45;97677.05;1779651;79;21512;-78
2020/12/07 07:15:20;;;;;;;24.93;8.33;;;;;;;-4.10;83.59;97660.61;1774057;79;21130;-79
2020/12/07 07:17:48;;;;;;;39.93;19.73;;;;;;;-4.11;83.21;97664.45;1766915;79;21509;-81
2020/12/07 07:20:16;;;;;;;19.37;9.17;;;;;;;-4.10;83.43;97652.15;1774709;79;21168;-80
2020/12/07 07:22:46;;;;;;;20.37;9.17;;;;;;;-4.07;83.81;97659.70;1778285;79;21362;-77
2020/12/07 07:28:08;;;;;;;19.90;9.33;;;;;;;-4.06;82.97;97643.59;1757822;80;21125;-81
2020/12/07 07:30:35;;;;;;;20.37;10.00;;;;;;;-4.12;83.10;97661.52;1762118;80;21231;-79
2020/12/07 07:33:02;;;;;;;26.27;12.13;;;;;;;-4.16;83.48;97672.15;1760262;79;21108;-80
2020/12/07 07:35:32;;;;;;;31.00;14.50;;;;;;;-4.16;82.56;97670.88;1753674;79;21142;-78
2020/12/07 07:37:59;;;;;;;26.53;12.83;;;;;;;-4.20;82.50;97673.09;1750444;79;21198;-79
2020/12/07 07:40:28;;;;;;;25.13;12.07;;;;;;;-4.20;82.80;97685.78;1771068;79;21193;-74
2020/12/07 07:43:00;;;;;;;27.30;11.47;;;;;;;-4.16;82.97;97689.92;1762518;79;21166;-75
2020/12/07 07:45:36;;;;;;;27.20;12.13;;;;;;;-4.15;81.61;97671.28;1764710;80;21187;-77
2020/12/07 07:54:06;;;;;;;24.20;10.90;;;;;;;-4.38;80.94;97689.52;1735503;80;21123;-75
2020/12/07 08:15:56;;;;;;;19.73;10.07;;;;;;;-4.32;81.81;97691.08;1720079;81;21379;-78
2020/12/07 08:18:34;;;;;;;25.60;11.77;;;;;;;-4.35;81.93;97714.83;1747672;78;21614;-80
2020/12/07 08:21:03;;;;;;;22.73;10.23;;;;;;;-4.37;81.91;97693.72;1755261;80;21107;-76
2020/12/07 08:23:31;;;;;;;23.00;10.27;;;;;;;-4.38;82.33;97698.40;1763370;80;21132;-78
2020/12/07 08:26:02;;;;;;;24.93;10.20;;;;;;;-4.39;82.42;97699.23;1772803;80;21165;-80
2020/12/07 08:28:39;;;;;;;20.80;9.70;;;;;;;-4.37;82.79;97683.56;1754996;80;21175;-77
2020/12/07 08:31:18;;;;;;;22.73;10.60;;;;;;;-4.32;82.63;97690.64;1785311;78;21206;-78
2020/12/07 08:34:12;;;;;;;23.47;9.43;;;;;;;-4.32;82.75;97688.11;1784167;78;21129;-79
2020/12/07 08:36:45;;;;;;;21.12;10.63;;;;;;;-4.30;82.38;97672.44;1800701;78;21635;-79
2020/12/07 08:39:12;;;;;;;30.93;14.47;;;;;;;-4.31;82.62;97685.13;1784513;79;21195;-82
2020/12/07 08:41:40;;;;;;;25.97;10.07;;;;;;;-4.32;82.60;97660.61;1783481;78;21355;-80
2020/12/07 08:44:09;;;;;;;24.20;10.23;;;;;;;-4.29;82.72;97677.08;1790162;78;21213;-80
2020/12/07 08:46:39;;;;;;;22.03;10.07;;;;;;;-4.28;82.68;97673.23;1796206;78;21064;-86
2020/12/07 08:49:07;;;;;;;26.00;11.13;;;;;;;-4.31;82.72;97660.57;1784321;80;21135;-79
2020/12/07 08:51:38;;;;;;;22.10;10.43;;;;;;;-4.30;83.16;97682.59;1783163;78;21186;-78
2020/12/07 08:54:07;;;;;;;30.43;13.37;;;;;;;-4.26;83.34;97670.22;1791570;78;21184;-78
2020/12/07 08:56:35;;;;;;;20.37;9.57;;;;;;;-4.23;83.35;97666.78;1784105;78;21498;-82
2020/12/07 08:59:02;;;;;;;24.70;11.40;;;;;;;-4.18;82.99;97661.19;1791492;78;21529;-79
2020/12/07 09:01:29;;;;;;;23.33;11.57;;;;;;;-4.18;82.59;97660.36;1787591;78;21217;-81
2020/12/07 09:03:56;;;;;;;35.33;17.67;;;;;;;-4.17;82.90;97674.72;1788797;79;21152;-80
2020/12/07 09:06:24;;;;;;;25.07;12.80;;;;;;;-4.15;83.01;97667.91;1787568;78;21145;-81
2020/12/07 09:08:51;;;;;;;19.73;9.67;;;;;;;-4.11;83.01;97674.61;1784226;79;21561;-81
2020/12/07 09:11:20;;;;;;;20.87;10.83;;;;;;;-4.12;82.75;97679.30;1762757;80;21113;-79
2020/12/07 09:13:48;;;;;;;24.57;11.07;;;;;;;-4.16;82.88;97662.42;1748475;81;21644;-78
2020/12/07 09:16:16;;;;;;;25.10;11.93;;;;;;;-4.20;83.13;97643.05;1749273;80;21129;-81
2020/12/07 09:18:44;;;;;;;25.83;11.40;;;;;;;-4.19;83.72;97654.88;1735740;80;21187;-81
2020/12/07 09:21:16;;;;;;;24.57;9.83;;;;;;;-4.19;83.87;97648.53;1756517;81;21397;-86
2020/12/07 09:23:43;;;;;;;22.53;11.57;;;;;;;-4.19;83.84;97652.34;1744527;80;21140;-78
2020/12/07 09:26:10;;;;;;;20.13;10.13;;;;;;;-4.19;83.92;97656.14;1740776;80;21170;-89
2020/12/07 09:28:37;;;;;;;26.37;10.60;;;;;;;-4.19;83.87;97653.17;1735482;80;21637;-85
2020/12/07 09:31:05;;;;;;;23.20;11.23;;;;;;;-4.22;84.21;97618.09;1738468;82;21369;-79
2020/12/07 09:33:35;;;;;;;27.83;14.13;;;;;;;-4.21;84.48;97645.19;1737342;82;21187;-83
2020/12/07 09:36:03;;;;;;;21.07;11.40;;;;;;;-4.14;84.66;97643.73;1736731;82;21182;-79
2020/12/07 09:38:30;;;;;;;28.57;10.37;;;;;;;-4.09;84.31;97634.77;1745792;82;20993;-83
2020/12/07 09:40:58;;;;;;;23.60;11.90;;;;;;;-4.12;84.22;97631.03;1747034;82;21131;-81
2020/12/07 09:43:27;;;;;;;21.97;10.60;;;;;;;-4.13;84.30;97625.55;1743028;80;21315;-86
2020/12/07 09:45:54;;;;;;;25.47;10.30;;;;;;;-4.13;84.53;97635.72;1739912;82;21171;-85
2020/12/07 09:48:21;;;;;;;26.17;12.47;;;;;;;-4.10;84.84;97643.27;1761223;81;21158;-80
2020/12/07 09:50:48;;;;;;;25.23;11.40;;;;;;;-4.08;84.89;97626.28;1747901;80;21163;-87
2020/12/07 09:53:18;;;;;;;25.60;10.63;;;;;;;-4.06;85.00;97645.69;1756139;81;21134;-85
2020/12/07 09:55:46;;;;;;;23.93;10.83;;;;;;;-4.00;84.99;97614.25;1737121;80;21352;-81
2020/12/07 09:58:24;;;;;;;20.13;9.90;;;;;;;-3.96;84.75;97621.80;1750770;81;21186;-86
2020/12/07 10:00:53;;;;;;;20.27;10.50;;;;;;;-3.94;84.66;97615.84;1734667;80;21123;-85
2020/12/07 10:03:21;;;;;;;20.67;10.10;;;;;;;-3.89;84.89;97612.31;1742685;80;21510;-86
2020/12/07 10:05:51;;;;;;;22.73;10.33;;;;;;;-3.82;84.81;97629.54;1737555;80;21237;-84
2020/12/07 10:08:19;;;;;;;23.27;9.87;;;;;;;-3.78;84.38;97612.94;1735760;82;21515;-83
2020/12/07 10:10:48;;;;;;;18.17;8.50;;;;;;;-3.76;84.40;97593.41;1723857;82;21182;-83
2020/12/07 10:13:19;;;;;;;19.87;9.57;;;;;;;-3.78;83.96;97579.90;1741620;80;21196;-82
2020/12/07 10:15:48;;;;;;;21.73;9.87;;;;;;;-3.80;84.35;97579.55;1764772;80;21128;-88
2020/12/07 10:18:16;;;;;;;24.60;11.97;;;;;;;-3.77;84.37;97612.50;1769895;79;21145;-84
2020/12/07 10:20:46;;;;;;;23.67;11.83;;;;;;;-3.74;84.20;97605.63;1753977;79;21617;-83
2020/12/07 10:23:17;;;;;;;22.83;9.43;;;;;;;-3.74;84.11;97618.34;1761549;80;21187;-82
2020/12/07 10:25:51;;;;;;;21.00;9.77;;;;;;;-3.71;84.49;97601.77;1763603;80;21193;-76
2020/12/07 10:28:20;;;;;;;18.77;8.33;;;;;;;-3.69;83.83;97600.02;1790226;78;21159;-79
2020/12/07 10:30:49;;;;;;;22.90;9.20;;;;;;;-3.69;84.13;97635.61;1755647;80;21503;-76
2020/12/07 10:33:17;;;;;;;22.10;9.90;;;;;;;-3.66;84.30;97608.01;1781340;78;21791;-77
2020/12/07 10:35:44;;;;;;;22.27;8.60;;;;;;;-3.60;84.25;97608.31;1778867;80;22109;-84
2020/12/07 10:38:12;;;;;;;21.63;8.57;;;;;;;-3.56;83.94;97595.92;1776334;80;21189;-79
2020/12/07 10:40:48;;;;;;;22.63;10.03;;;;;;;-3.57;83.83;97590.00;1764289;81;21138;-79
2020/12/07 10:43:16;;;;;;;21.77;9.50;;;;;;;-3.58;83.60;97612.48;1739399;79;21195;-81
2020/12/07 10:45:46;;;;;;;20.33;10.20;;;;;;;-3.62;84.04;97619.80;1753252;79;21436;-78
2020/12/07 10:48:13;;;;;;;21.53;8.60;;;;;;;-3.60;84.18;97608.31;1765093;79;21560;-78
2020/12/07 10:50:41;;;;;;;19.40;8.53;;;;;;;-3.64;84.29;97620.67;1772541;79;21167;-79
2020/12/07 10:53:08;;;;;;;26.90;12.03;;;;;;;-3.64;84.62;97596.53;1770227;79;21155;-78
2020/12/07 10:55:38;;;;;;;21.53;9.00;;;;;;;-3.65;84.44;97619.01;1767053;79;21150;-78
2020/12/07 10:58:05;;;;;;;20.30;9.00;;;;;;;-3.67;84.51;97603.36;1761767;80;21804;-75
2020/12/07 11:00:32;;;;;;;18.37;9.77;;;;;;;-3.69;84.54;97614.00;1769349;80;21496;-76
2020/12/07 11:03:00;;;;;;;20.17;10.10;;;;;;;-3.69;84.79;97598.75;1776347;79;21157;-76
2020/12/07 11:05:28;;;;;;;18.73;9.53;;;;;;;-3.64;84.90;97579.60;1752109;81;21534;-76
2020/12/07 11:07:56;;;;;;;23.10;9.80;;;;;;;-3.63;84.30;97598.23;1747592;81;21147;-77
2020/12/07 11:10:24;;;;;;;19.30;9.50;;;;;;;-3.67;84.59;97600.82;1771719;79;21727;-77
2020/12/07 11:12:59;;;;;;;28.37;8.67;;;;;;;-3.67;84.74;97600.82;1788296;78;21198;-79
2020/12/07 11:15:21;;;;;;;17.50;9.13;;;;;;;-3.72;84.76;97587.39;1798159;78;21645;-75
2020/12/07 11:17:51;;;;;;;20.20;10.13;;;;;;;-3.77;85.12;97594.28;1756848;80;21198;-75
2020/12/07 11:20:21;;;;;;;28.17;10.33;;;;;;;-3.78;85.20;97584.15;1757476;78;21175;-76
2020/12/07 11:22:51;;;;;;;23.90;10.53;;;;;;;-3.74;85.30;97571.32;1773946;78;21419;-75
2020/12/07 11:25:18;;;;;;;18.67;9.57;;;;;;;-3.73;85.12;97565.36;1800758;78;21147;-77
2020/12/07 11:27:45;;;;;;;20.37;9.10;;;;;;;-3.75;84.98;97563.73;1764539;80;21164;-76
2020/12/07 11:30:13;;;;;;;21.07;10.30;;;;;;;-3.82;84.79;97565.58;1758261;80;21162;-77
2020/12/07 11:32:45;;;;;;;21.00;10.13;;;;;;;-3.88;84.99;97569.98;1781053;80;21178;-76
2020/12/07 11:35:12;;;;;;;18.83;9.10;;;;;;;-3.92;85.41;97576.82;1779530;80;21425;-76
2020/12/07 11:37:40;;;;;;;24.50;10.17;;;;;;;-3.89;85.26;97592.42;1774671;80;21161;-76
2020/12/07 11:40:28;;;;;;;20.30;9.30;;;;;;;-3.89;85.47;97589.88;1762008;79;21118;-75
2020/12/07 11:43:15;;;;;;;18.13;9.07;;;;;;;-3.87;85.22;97579.27;1761281;79;21154;-76
2020/12/07 11:45:37;;;;;;;18.07;8.40;;;;;;;-3.84;85.05;97590.19;1740638;80;21647;-76
2020/12/07 11:48:04;;;;;;;17.60;7.47;;;;;;;-3.80;85.15;97596.89;1780245;80;21651;-75
2020/12/07 11:50:31;;;;;;;18.50;7.80;;;;;;;-3.80;84.50;97594.80;1774583;79;21194;-74
2020/12/07 11:52:58;;;;;;;18.13;8.07;;;;;;;-3.84;84.51;97602.90;1765236;81;21163;-75
2020/12/07 11:55:25;;;;;;;17.40;8.03;;;;;;;-3.82;84.62;97593.53;1765781;81;21131;-77
2020/12/07 11:57:52;;;;;;;21.70;8.07;;;;;;;-3.82;84.51;97608.77;1787625;80;21119;-74
2020/12/07 12:00:19;;;;;;;21.33;8.90;;;;;;;-3.83;84.51;97591.86;1756233;80;22302;-77
2020/12/07 12:02:47;;;;;;;19.37;8.80;;;;;;;-3.85;84.39;97583.88;1785562;78;21147;-77
2020/12/07 12:05:14;;;;;;;19.73;8.83;;;;;;;-3.88;84.32;97602.58;1782188;78;21581;-75